Time,TemperatureF,DewpointF,PressureIn,WindDirection,WindDirectionDegrees,WindSpeedMPH,WindSpeedGustMPH,Humidity,HourlyPrecipIn,Conditions,Clouds,dailyrainin,SoftwareType,DateUTC
2013-04-20 00:10:00,54.5,52.0,29.88,NNW,335,2.0,7.0,90,0.00,,,0.00,weatherlink.com 1.10,2013-04-20 04:10:00,
2013-04-20 00:25:00,54.2,52.0,29.88,SE,125,2.0,5.0,91,0.00,,,0.00,weatherlink.com 1.10,2013-04-20 04:25:00,
2013-04-20 00:40:00,54.1,52.0,29.89,NW,305,1.0,4.0,91,0.00,,,0.00,weatherlink.com 1.10,2013-04-20 04:40:00,
2013-04-20 00:55:00,54.0,52.0,29.89,West,281,1.0,3.0,92,0.00,,,0.00,weatherlink.com 1.10,2013-04-20 04:55:00,
2013-04-20 01:10:00,53.9,52.0,29.88,SSW,205,1.0,2.0,92,0.00,,,0.00,weatherlink.com 1.10,2013-04-20 05:10:00,
2013-04-20 01:25:00,53.8,52.0,29.87,WNW,290,2.0,5.0,93,0.00,,,0.00,weatherlink.com 1.10,2013-04-20 05:25:00,
2013-04-20 01:40:00,53.7,52.0,29.88,NW,311,6.0,6.0,92,0.00,,,0.00,weatherlink.com 1.10,2013-04-20 05:40:00,
2013-04-20 01:55:00,53.5,51.0,29.89,SW,234,1.0,4.0,92,0.00,,,0.00,weatherlink.com 1.10,2013-04-20 05:55:00,
2013-04-20 02:10:00,53.5,52.0,29.91,South,169,0.0,5.0,93,0.00,,,0.00,weatherlink.com 1.10,2013-04-20 06:10:00,
2013-04-20 02:25:00,53.4,51.0,29.92,SW,235,2.0,5.0,92,0.00,,,0.00,weatherlink.com 1.10,2013-04-20 06:25:00,
2013-04-20 02:40:00,53.1,49.0,29.93,SW,218,1.0,4.0,86,0.00,,,0.00,weatherlink.com 1.10,2013-04-20 06:40:00,
2013-04-20 02:55:00,52.6,45.0,29.93,WSW,242,1.0,8.0,74,0.00,,,0.00,weatherlink.com 1.10,2013-04-20 06:55:00,
2013-04-20 03:10:00,52.1,45.0,29.93,SW,219,1.0,2.0,77,0.00,,,0.00,weatherlink.com 1.10,2013-04-20 07:10:00,
2013-04-20 03:25:00,51.3,45.0,29.93,SW,219,0.0,2.0,79,0.00,,,0.00,weatherlink.com 1.10,2013-04-20 07:25:00,
2013-04-20 03:40:00,50.8,45.0,29.93,SE,138,1.0,3.0,79,0.00,,,0.00,weatherlink.com 1.10,2013-04-20 07:40:00,
2013-04-20 03:55:00,50.4,44.0,29.94,WSW,242,1.0,2.0,79,0.00,,,0.00,weatherlink.com 1.10,2013-04-20 07:55:00,
2013-04-20 04:10:00,50.0,44.0,29.95,WSW,242,2.0,2.0,80,0.00,,,0.00,weatherlink.com 1.10,2013-04-20 08:10:00,
2013-04-20 04:25:00,49.6,44.0,29.95,SSW,212,1.0,4.0,80,0.00,,,0.00,weatherlink.com 1.10,2013-04-20 08:25:00,
2013-04-20 04:40:00,49.3,43.0,29.95,WNW,298,1.0,5.0,78,0.00,,,0.00,weatherlink.com 1.10,2013-04-20 08:40:00,
2013-04-20 04:55:00,49.1,43.0,29.96,SW,219,0.0,3.0,78,0.00,,,0.00,weatherlink.com 1.10,2013-04-20 08:55:00,
2013-04-20 05:10:00,48.5,42.0,29.97,SW,219,0.0,1.0,78,0.00,,,0.00,weatherlink.com 1.10,2013-04-20 09:10:00,
2013-04-20 05:25:00,48.1,41.0,29.98,South,186,0.0,3.0,76,0.00,,,0.00,weatherlink.com 1.10,2013-04-20 09:25:00,
2013-04-20 05:40:00,47.7,41.0,29.98,SW,215,0.0,4.0,78,0.00,,,0.00,weatherlink.com 1.10,2013-04-20 09:40:00,
2013-04-20 05:55:00,47.3,40.0,29.99,WSW,250,0.0,3.0,77,0.00,,,0.00,weatherlink.com 1.10,2013-04-20 09:55:00,
2013-04-20 06:10:00,46.4,41.0,30.00,WSW,250,0.0,1.0,80,0.00,,,0.00,weatherlink.com 1.10,2013-04-20 10:10:00,
2013-04-20 06:26:00,45.0,41.0,30.01,WSW,250,0.0,0.0,84,0.00,,,0.00,weatherlink.com 1.10,2013-04-20 10:26:00,
2013-04-20 06:41:00,43.9,40.0,30.03,WSW,250,0.0,1.0,86,0.00,,,0.00,weatherlink.com 1.10,2013-04-20 10:41:00,
2013-04-20 06:56:00,43.1,40.0,30.04,WSW,250,0.0,1.0,87,0.00,,,0.00,weatherlink.com 1.10,2013-04-20 10:56:00,
2013-04-20 07:11:00,42.5,40.0,30.05,WSW,250,0.0,0.0,90,0.00,,,0.00,weatherlink.com 1.10,2013-04-20 11:11:00,
2013-04-20 07:26:00,42.2,40.0,30.06,WSW,250,0.0,0.0,91,0.00,,,0.00,weatherlink.com 1.10,2013-04-20 11:26:00,
2013-04-20 07:41:00,42.0,40.0,30.07,WSW,250,0.0,0.0,91,0.00,,,0.00,weatherlink.com 1.10,2013-04-20 11:41:00,
2013-04-20 07:56:00,42.5,40.0,30.08,WSW,250,0.0,1.0,91,0.00,,,0.00,weatherlink.com 1.10,2013-04-20 11:56:00,
2013-04-20 08:11:00,43.7,40.0,30.09,WSW,250,0.0,2.0,87,0.00,,,0.00,weatherlink.com 1.10,2013-04-20 12:11:00,
2013-04-20 08:26:00,46.0,40.0,30.09,SW,228,1.0,6.0,79,0.00,,,0.00,weatherlink.com 1.10,2013-04-20 12:26:00,
2013-04-20 08:41:00,47.4,38.0,30.10,West,267,1.0,6.0,70,0.00,,,0.00,weatherlink.com 1.10,2013-04-20 12:41:00,
2013-04-20 08:56:00,48.6,38.0,30.10,SSE,154,1.0,7.0,66,0.00,,,0.00,weatherlink.com 1.10,2013-04-20 12:56:00,
2013-04-20 09:11:00,49.0,36.0,30.11,SSE,164,2.0,6.0,62,0.00,,,0.00,weatherlink.com 1.10,2013-04-20 13:11:00,
2013-04-20 09:26:00,49.0,35.0,30.11,ESE,120,1.0,9.0,59,0.00,,,0.00,weatherlink.com 1.10,2013-04-20 13:26:00,
2013-04-20 09:41:00,49.7,36.0,30.12,SE,144,2.0,7.0,60,0.00,,,0.00,weatherlink.com 1.10,2013-04-20 13:41:00,
2013-04-20 09:56:00,50.2,34.0,30.13,ESE,121,1.0,7.0,55,0.00,,,0.00,weatherlink.com 1.10,2013-04-20 13:56:00,
2013-04-20 10:11:00,50.9,35.0,30.14,East,99,1.0,5.0,56,0.00,,,0.00,weatherlink.com 1.10,2013-04-20 14:11:00,
2013-04-20 10:26:00,51.3,34.0,30.14,East,98,2.0,6.0,51,0.00,,,0.00,weatherlink.com 1.10,2013-04-20 14:26:00,
2013-04-20 10:41:00,51.7,35.0,30.14,SSW,201,0.0,5.0,53,0.00,,,0.00,weatherlink.com 1.10,2013-04-20 14:41:00,
2013-04-20 10:56:00,51.7,35.0,30.14,ESE,117,4.0,5.0,53,0.00,,,0.00,weatherlink.com 1.10,2013-04-20 14:56:00,
2013-04-20 11:11:00,52.9,36.0,30.15,NE,44,1.0,6.0,53,0.00,,,0.00,weatherlink.com 1.10,2013-04-20 15:11:00,
2013-04-20 11:26:00,53.7,34.0,30.14,ESE,109,2.0,6.0,48,0.00,,,0.00,weatherlink.com 1.10,2013-04-20 15:26:00,
2013-04-20 11:41:00,54.7,34.0,30.15,North,9,1.0,6.0,46,0.00,,,0.00,weatherlink.com 1.10,2013-04-20 15:41:00,
2013-04-20 11:56:00,55.4,34.0,30.15,WSW,254,1.0,6.0,45,0.00,,,0.00,weatherlink.com 1.10,2013-04-20 15:56:00,
2013-04-20 12:11:00,56.6,35.0,30.15,East,101,1.0,5.0,44,0.00,,,0.00,weatherlink.com 1.10,2013-04-20 16:11:00,
2013-04-20 12:26:00,57.1,33.0,30.15,ESE,108,1.0,7.0,40,0.00,,,0.00,weatherlink.com 1.10,2013-04-20 16:26:00,
2013-04-20 12:42:00,58.5,37.0,30.14,WSW,247,2.0,4.0,45,0.00,,,0.00,weatherlink.com 1.10,2013-04-20 16:42:00,
2013-04-20 12:57:00,58.6,35.0,30.14,WSW,254,5.0,10.0,41,0.00,,,0.00,weatherlink.com 1.10,2013-04-20 16:57:00,
2013-04-20 13:12:00,58.6,36.0,30.14,South,177,3.0,8.0,43,0.00,,,0.00,weatherlink.com 1.10,2013-04-20 17:12:00,
2013-04-20 13:27:00,58.9,37.0,30.14,West,278,3.0,7.0,44,0.00,,,0.00,weatherlink.com 1.10,2013-04-20 17:27:00,
2013-04-20 13:42:00,60.0,34.0,30.14,WSW,238,2.0,5.0,38,0.00,,,0.00,weatherlink.com 1.10,2013-04-20 17:42:00,
2013-04-20 13:57:00,60.1,39.0,30.14,West,265,1.0,7.0,45,0.00,,,0.00,weatherlink.com 1.10,2013-04-20 17:57:00,
2013-04-20 14:12:00,61.0,37.0,30.13,NW,307,2.0,4.0,41,0.00,,,0.00,weatherlink.com 1.10,2013-04-20 18:12:00,
2013-04-20 14:27:00,61.4,39.0,30.13,SSW,213,2.0,5.0,43,0.00,,,0.00,weatherlink.com 1.10,2013-04-20 18:27:00,
2013-04-20 14:42:00,61.8,35.0,30.13,NE,38,2.0,5.0,37,0.00,,,0.00,weatherlink.com 1.10,2013-04-20 18:42:00,
2013-04-20 14:57:00,62.8,39.0,30.12,West,269,4.0,4.0,41,0.00,,,0.00,weatherlink.com 1.10,2013-04-20 18:57:00,
2013-04-20 15:12:00,62.1,37.0,30.12,NW,309,0.0,5.0,39,0.00,,,0.00,weatherlink.com 1.10,2013-04-20 19:12:00,
2013-04-20 15:27:00,63.5,37.0,30.12,SSE,161,1.0,5.0,38,0.00,,,0.00,weatherlink.com 1.10,2013-04-20 19:27:00,
2013-04-20 15:42:00,64.6,38.0,30.11,NE,47,1.0,5.0,37,0.00,,,0.00,weatherlink.com 1.10,2013-04-20 19:42:00,
2013-04-20 15:57:00,64.9,39.0,30.11,West,262,0.0,5.0,38,0.00,,,0.00,weatherlink.com 1.10,2013-04-20 19:57:00,
2013-04-20 16:12:00,65.0,36.0,30.11,ESE,107,2.0,3.0,34,0.00,,,0.00,weatherlink.com 1.10,2013-04-20 20:12:00,
2013-04-20 16:27:00,64.6,35.0,30.11,NW,323,0.0,7.0,34,0.00,,,0.00,weatherlink.com 1.10,2013-04-20 20:27:00,
2013-04-20 16:42:00,64.9,36.0,30.11,WNW,294,6.0,6.0,34,0.00,,,0.00,weatherlink.com 1.10,2013-04-20 20:42:00,
2013-04-20 16:57:00,65.4,37.0,30.11,SSW,204,2.0,4.0,35,0.00,,,0.00,weatherlink.com 1.10,2013-04-20 20:57:00,
2013-04-20 17:12:00,65.3,36.0,30.11,SE,132,1.0,5.0,34,0.00,,,0.00,weatherlink.com 1.10,2013-04-20 21:12:00,
2013-04-20 17:27:00,64.9,35.0,30.12,SSW,192,1.0,4.0,33,0.00,,,0.00,weatherlink.com 1.10,2013-04-20 21:27:00,
2013-04-20 17:42:00,65.1,36.0,30.13,WSW,256,0.0,4.0,34,0.00,,,0.00,weatherlink.com 1.10,2013-04-20 21:42:00,
2013-04-20 17:57:00,64.8,36.0,30.13,NE,53,0.0,2.0,34,0.00,,,0.00,weatherlink.com 1.10,2013-04-20 21:57:00,
2013-04-20 18:12:00,64.1,36.0,30.13,West,281,0.0,3.0,35,0.00,,,0.00,weatherlink.com 1.10,2013-04-20 22:12:00,
2013-04-20 18:27:00,63.6,35.0,30.13,NNE,26,1.0,2.0,35,0.00,,,0.00,weatherlink.com 1.10,2013-04-20 22:27:00,
2013-04-20 18:42:00,63.0,36.0,30.14,ENE,69,0.0,2.0,37,0.00,,,0.00,weatherlink.com 1.10,2013-04-20 22:42:00,
2013-04-20 18:57:00,62.4,38.0,30.14,South,181,0.0,1.0,41,0.00,,,0.00,weatherlink.com 1.10,2013-04-20 22:57:00,
2013-04-20 19:12:00,61.5,41.0,30.14,South,181,0.0,1.0,47,0.00,,,0.00,weatherlink.com 1.10,2013-04-20 23:12:00,
2013-04-20 19:27:00,60.4,42.0,30.15,South,181,0.0,1.0,51,0.00,,,0.00,weatherlink.com 1.10,2013-04-20 23:27:00,
2013-04-20 19:42:00,58.6,43.0,30.15,South,181,0.0,0.0,56,0.00,,,0.00,weatherlink.com 1.10,2013-04-20 23:42:00,
2013-04-20 19:57:00,56.4,43.0,30.16,South,181,0.0,0.0,62,0.00,,,0.00,weatherlink.com 1.10,2013-04-20 23:57:00,
2013-04-20 20:12:00,54.5,43.0,30.17,South,181,0.0,0.0,65,0.00,,,0.00,weatherlink.com 1.10,2013-04-21 00:12:00,
2013-04-20 20:27:00,52.3,43.0,30.18,South,181,0.0,0.0,70,0.00,,,0.00,weatherlink.com 1.10,2013-04-21 00:27:00,
2013-04-20 20:42:00,50.8,43.0,30.19,South,181,0.0,0.0,74,0.00,,,0.00,weatherlink.com 1.10,2013-04-21 00:42:00,
2013-04-20 20:57:00,49.3,43.0,30.20,South,181,0.0,0.0,80,0.00,,,0.00,weatherlink.com 1.10,2013-04-21 00:57:00,
2013-04-20 21:12:00,48.4,43.0,30.20,South,181,0.0,0.0,82,0.00,,,0.00,weatherlink.com 1.10,2013-04-21 01:12:00,
2013-04-20 21:27:00,47.4,43.0,30.21,South,181,0.0,0.0,84,0.00,,,0.00,weatherlink.com 1.10,2013-04-21 01:27:00,
2013-04-20 21:42:00,46.8,43.0,30.22,South,181,0.0,0.0,86,0.00,,,0.00,weatherlink.com 1.10,2013-04-21 01:42:00,
2013-04-20 21:57:00,46.1,42.0,30.23,South,181,0.0,0.0,86,0.00,,,0.00,weatherlink.com 1.10,2013-04-21 01:57:00,
2013-04-20 22:12:00,45.6,42.0,30.23,South,181,0.0,0.0,87,0.00,,,0.00,weatherlink.com 1.10,2013-04-21 02:12:00,
2013-04-20 22:27:00,45.2,42.0,30.23,South,181,0.0,0.0,89,0.00,,,0.00,weatherlink.com 1.10,2013-04-21 02:27:00,
2013-04-20 22:42:00,44.7,42.0,30.24,South,181,0.0,0.0,89,0.00,,,0.00,weatherlink.com 1.10,2013-04-21 02:42:00,
2013-04-20 22:57:00,44.3,42.0,30.24,South,181,0.0,0.0,90,0.00,,,0.00,weatherlink.com 1.10,2013-04-21 02:57:00,
2013-04-20 23:12:00,43.9,41.0,30.24,South,181,0.0,0.0,90,0.00,,,0.00,weatherlink.com 1.10,2013-04-21 03:12:00,
2013-04-20 23:27:00,43.6,41.0,30.24,South,181,0.0,0.0,91,0.00,,,0.00,weatherlink.com 1.10,2013-04-21 03:27:00,
2013-04-20 23:43:00,43.2,41.0,30.25,South,181,0.0,0.0,91,0.00,,,0.00,weatherlink.com 1.10,2013-04-21 03:43:00,
2013-04-20 23:58:00,42.8,40.0,30.25,South,181,0.0,0.0,91,0.00,,,0.00,weatherlink.com 1.10,2013-04-21 03:58:00,